sensor_id;sensor_type;location;lat;lon;timestamp;temperature;humidity
16838;DHT22;19510;54.486;9.046;2023-10-09T00:42:46;11.10;99.90
16838;DHT22;19510;54.486;9.046;2023-10-09T00:45:13;11.10;99.90
16838;DHT22;19510;54.486;9.046;2023-10-09T00:47:50;11.10;99.90
16838;DHT22;19510;54.486;9.046;2023-10-09T00:50:17;11.00;99.90
16838;DHT22;19510;54.486;9.046;2023-10-09T00:52:45;11.00;99.90
16838;DHT22;19510;54.486;9.046;2023-10-09T00:55:21;11.00;99.90
16838;DHT22;19510;54.486;9.046;2023-10-09T00:57:56;11.10;99.90
16838;DHT22;19510;54.486;9.046;2023-10-09T01:00:27;11.00;99.90
16838;DHT22;19510;54.486;9.046;2023-10-09T01:03:09;11.00;99.90
16838;DHT22;19510;54.486;9.046;2023-10-09T01:06:00;10.90;99.90
16838;DHT22;19510;54.486;9.046;2023-10-09T01:08:37;10.80;99.90
16838;DHT22;19510;54.486;9.046;2023-10-09T01:11:13;10.90;99.90
16838;DHT22;19510;54.486;9.046;2023-10-09T01:13:49;10.90;99.90
16838;DHT22;19510;54.486;9.046;2023-10-09T01:16:16;10.80;99.90
16838;DHT22;19510;54.486;9.046;2023-10-09T01:18:43;10.80;99.90
16838;DHT22;19510;54.486;9.046;2023-10-09T01:21:10;10.80;99.90
16838;DHT22;19510;54.486;9.046;2023-10-09T01:23:44;10.80;99.90
16838;DHT22;19510;54.486;9.046;2023-10-09T01:26:36;10.80;99.90
16838;DHT22;19510;54.486;9.046;2023-10-09T01:29:07;10.70;99.90
16838;DHT22;19510;54.486;9.046;2023-10-09T01:34:43;10.70;99.90
16838;DHT22;19510;54.486;9.046;2023-10-09T01:37:19;10.70;99.90
16838;DHT22;19510;54.486;9.046;2023-10-09T01:39:53;10.60;99.90
16838;DHT22;19510;54.486;9.046;2023-10-09T01:42:20;10.60;99.90
16838;DHT22;19510;54.486;9.046;2023-10-09T01:45:09;10.60;99.90
16838;DHT22;19510;54.486;9.046;2023-10-09T01:48:01;10.60;99.90
16838;DHT22;19510;54.486;9.046;2023-10-09T01:50:30;10.60;99.90
16838;DHT22;19510;54.486;9.046;2023-10-09T01:52:57;10.70;99.90
16838;DHT22;19510;54.486;9.046;2023-10-09T01:55:25;10.70;99.90
16838;DHT22;19510;54.486;9.046;2023-10-09T01:58:08;10.70;99.90
16838;DHT22;19510;54.486;9.046;2023-10-09T02:00:42;10.60;99.90
16838;DHT22;19510;54.486;9.046;2023-10-09T02:03:13;10.70;99.90
16838;DHT22;19510;54.486;9.046;2023-10-09T02:05:47;10.70;99.90
16838;DHT22;19510;54.486;9.046;2023-10-09T02:08:13;10.70;99.90
16838;DHT22;19510;54.486;9.046;2023-10-09T02:10:39;10.70;99.90
16838;DHT22;19510;54.486;9.046;2023-10-09T02:13:07;10.80;99.90
16838;DHT22;19510;54.486;9.046;2023-10-09T02:15:53;10.80;99.90
16838;DHT22;19510;54.486;9.046;2023-10-09T02:18:23;10.80;99.90
16838;DHT22;19510;54.486;9.046;2023-10-09T02:21:06;10.80;99.90
16838;DHT22;19510;54.486;9.046;2023-10-09T02:23:34;10.80;99.90
16838;DHT22;19510;54.486;9.046;2023-10-09T02:26:09;10.80;99.90
16838;DHT22;19510;54.486;9.046;2023-10-09T02:32:18;10.80;99.90
16838;DHT22;19510;54.486;9.046;2023-10-09T02:34:53;10.70;99.90
16838;DHT22;19510;54.486;9.046;2023-10-09T02:37:20;10.80;99.90
16838;DHT22;19510;54.486;9.046;2023-10-09T02:39:56;10.70;99.90
16838;DHT22;19510;54.486;9.046;2023-10-09T02:42:35;10.70;99.90
16838;DHT22;19510;54.486;9.046;2023-10-09T04:29:45;10.80;99.90
16838;DHT22;19510;54.486;9.046;2023-10-09T05:08:29;10.90;99.90
16838;DHT22;19510;54.486;9.046;2023-10-09T05:11:04;10.90;99.90
16838;DHT22;19510;54.486;9.046;2023-10-09T05:13:33;10.90;99.90
16838;DHT22;19510;54.486;9.046;2023-10-09T05:16:16;10.90;99.90
16838;DHT22;19510;54.486;9.046;2023-10-09T05:18:51;10.90;99.90
16838;DHT22;19510;54.486;9.046;2023-10-09T05:21:28;10.90;99.90
16838;DHT22;19510;54.486;9.046;2023-10-09T05:24:03;10.90;99.90
16838;DHT22;19510;54.486;9.046;2023-10-09T05:26:43;10.90;99.90
16838;DHT22;19510;54.486;9.046;2023-10-09T05:29:13;10.80;99.90
16838;DHT22;19510;54.486;9.046;2023-10-09T05:31:52;10.90;99.90
16838;DHT22;19510;54.486;9.046;2023-10-09T05:34:36;10.90;99.90
16838;DHT22;19510;54.486;9.046;2023-10-09T05:37:20;10.90;99.90
16838;DHT22;19510;54.486;9.046;2023-10-09T05:40:04;10.90;99.90
16838;DHT22;19510;54.486;9.046;2023-10-09T05:42:36;10.90;99.90
16838;DHT22;19510;54.486;9.046;2023-10-09T05:45:13;10.90;99.90
16838;DHT22;19510;54.486;9.046;2023-10-09T05:48:17;10.90;99.90
16838;DHT22;19510;54.486;9.046;2023-10-09T05:50:43;10.90;99.90
16838;DHT22;19510;54.486;9.046;2023-10-09T05:53:30;10.90;99.90
16838;DHT22;19510;54.486;9.046;2023-10-09T05:56:13;10.90;99.90
16838;DHT22;19510;54.486;9.046;2023-10-09T05:58:57;10.90;99.90
16838;DHT22;19510;54.486;9.046;2023-10-09T06:01:52;10.90;99.90
16838;DHT22;19510;54.486;9.046;2023-10-09T06:04:37;10.90;99.90
16838;DHT22;19510;54.486;9.046;2023-10-09T06:07:21;10.90;99.90
16838;DHT22;19510;54.486;9.046;2023-10-09T06:10:06;10.90;99.90
16838;DHT22;19510;54.486;9.046;2023-10-09T06:12:52;11.00;99.90
16838;DHT22;19510;54.486;9.046;2023-10-09T06:15:29;11.00;99.90
16838;DHT22;19510;54.486;9.046;2023-10-09T06:18:16;11.00;99.90
16838;DHT22;19510;54.486;9.046;2023-10-09T06:20:51;10.90;99.90
16838;DHT22;19510;54.486;9.046;2023-10-09T06:23:32;11.00;99.90
16838;DHT22;19510;54.486;9.046;2023-10-09T06:26:34;10.90;99.90
16838;DHT22;19510;54.486;9.046;2023-10-09T06:29:00;10.80;99.90
16838;DHT22;19510;54.486;9.046;2023-10-09T06:31:41;10.90;99.90
16838;DHT22;19510;54.486;9.046;2023-10-09T06:34:42;10.90;99.90
16838;DHT22;19510;54.486;9.046;2023-10-09T06:37:10;10.90;99.90
16838;DHT22;19510;54.486;9.046;2023-10-09T06:39:48;10.90;99.90
16838;DHT22;19510;54.486;9.046;2023-10-09T06:42:27;11.00;99.90
16838;DHT22;19510;54.486;9.046;2023-10-09T06:45:03;11.00;99.90
16838;DHT22;19510;54.486;9.046;2023-10-09T06:47:34;11.00;99.90
16838;DHT22;19510;54.486;9.046;2023-10-09T06:50:19;11.00;99.90
16838;DHT22;19510;54.486;9.046;2023-10-09T06:52:51;11.00;99.90
16838;DHT22;19510;54.486;9.046;2023-10-09T06:55:27;11.00;99.90
16838;DHT22;19510;54.486;9.046;2023-10-09T06:58:01;11.10;99.90
16838;DHT22;19510;54.486;9.046;2023-10-09T07:00:29;11.10;99.90
16838;DHT22;19510;54.486;9.046;2023-10-09T07:03:33;11.10;99.90
16838;DHT22;19510;54.486;9.046;2023-10-09T07:06:06;11.10;99.90
16838;DHT22;19510;54.486;9.046;2023-10-09T07:08:37;11.20;99.90
16838;DHT22;19510;54.486;9.046;2023-10-09T07:11:04;11.10;99.90
16838;DHT22;19510;54.486;9.046;2023-10-09T07:14:12;11.10;99.90
16838;DHT22;19510;54.486;9.046;2023-10-09T07:17:07;11.10;99.90
16838;DHT22;19510;54.486;9.046;2023-10-09T07:19:54;11.20;99.90
16838;DHT22;19510;54.486;9.046;2023-10-09T07:22:20;11.20;99.90
16838;DHT22;19510;54.486;9.046;2023-10-09T07:24:55;11.20;99.90
16838;DHT22;19510;54.486;9.046;2023-10-09T07:27:34;11.20;99.90
16838;DHT22;19510;54.486;9.046;2023-10-09T07:30:11;11.20;99.90
16838;DHT22;19510;54.486;9.046;2023-10-09T07:33:00;11.20;99.90
16838;DHT22;19510;54.486;9.046;2023-10-09T07:35:37;11.20;99.90
16838;DHT22;19510;54.486;9.046;2023-10-09T07:38:25;11.20;99.90
16838;DHT22;19510;54.486;9.046;2023-10-09T07:40:55;11.30;99.90
16838;DHT22;19510;54.486;9.046;2023-10-09T07:43:29;11.30;99.90
16838;DHT22;19510;54.486;9.046;2023-10-09T07:46:08;11.30;99.90
16838;DHT22;19510;54.486;9.046;2023-10-09T07:48:56;11.30;99.90
16838;DHT22;19510;54.486;9.046;2023-10-09T07:51:23;11.40;99.90
16838;DHT22;19510;54.486;9.046;2023-10-09T07:53:56;11.40;99.90
16838;DHT22;19510;54.486;9.046;2023-10-09T07:56:34;11.30;99.90
16838;DHT22;19510;54.486;9.046;2023-10-09T07:59:14;11.30;99.90
16838;DHT22;19510;54.486;9.046;2023-10-09T08:01:43;11.40;99.90
16838;DHT22;19510;54.486;9.046;2023-10-09T08:04:23;11.40;99.90
16838;DHT22;19510;54.486;9.046;2023-10-09T08:07:24;11.40;99.90
16838;DHT22;19510;54.486;9.046;2023-10-09T08:10:00;11.40;99.90
16838;DHT22;19510;54.486;9.046;2023-10-09T08:12:44;11.40;99.90
16838;DHT22;19510;54.486;9.046;2023-10-09T08:15:17;11.40;99.90
16838;DHT22;19510;54.486;9.046;2023-10-09T08:17:51;11.40;99.90
16838;DHT22;19510;54.486;9.046;2023-10-09T08:20:28;11.40;99.90
16838;DHT22;19510;54.486;9.046;2023-10-09T08:23:01;11.50;99.90
16838;DHT22;19510;54.486;9.046;2023-10-09T08:25:35;11.50;99.90
16838;DHT22;19510;54.486;9.046;2023-10-09T08:28:21;11.40;99.90
16838;DHT22;19510;54.486;9.046;2023-10-09T08:31:18;11.50;99.90
16838;DHT22;19510;54.486;9.046;2023-10-09T08:34:11;11.50;99.90
16838;DHT22;19510;54.486;9.046;2023-10-09T08:36:49;11.50;99.90
16838;DHT22;19510;54.486;9.046;2023-10-09T08:39:18;11.50;99.90
16838;DHT22;19510;54.486;9.046;2023-10-09T08:41:51;11.50;99.90
16838;DHT22;19510;54.486;9.046;2023-10-09T08:44:19;11.50;99.90
16838;DHT22;19510;54.486;9.046;2023-10-09T08:46:48;11.50;99.90
16838;DHT22;19510;54.486;9.046;2023-10-09T08:49:14;11.50;99.90
16838;DHT22;19510;54.486;9.046;2023-10-09T08:51:40;11.50;99.90
16838;DHT22;19510;54.486;9.046;2023-10-09T08:54:08;11.60;99.90
16838;DHT22;19510;54.486;9.046;2023-10-09T08:56:37;11.60;99.90
16838;DHT22;19510;54.486;9.046;2023-10-09T08:59:05;11.50;99.90
16838;DHT22;19510;54.486;9.046;2023-10-09T09:01:31;11.60;99.90
16838;DHT22;19510;54.486;9.046;2023-10-09T09:03:59;11.50;99.90
16838;DHT22;19510;54.486;9.046;2023-10-09T09:06:38;11.60;99.90
16838;DHT22;19510;54.486;9.046;2023-10-09T09:09:12;11.60;99.90
16838;DHT22;19510;54.486;9.046;2023-10-09T09:11:42;11.60;99.90
16838;DHT22;19510;54.486;9.046;2023-10-09T09:14:14;11.60;99.90
16838;DHT22;19510;54.486;9.046;2023-10-09T09:16:45;11.60;99.90
16838;DHT22;19510;54.486;9.046;2023-10-09T09:19:14;11.50;99.90
16838;DHT22;19510;54.486;9.046;2023-10-09T09:21:50;11.50;99.90
16838;DHT22;19510;54.486;9.046;2023-10-09T09:24:20;11.50;99.90
16838;DHT22;19510;54.486;9.046;2023-10-09T09:26:50;11.60;99.90
16838;DHT22;19510;54.486;9.046;2023-10-09T09:29:45;11.60;99.90
16838;DHT22;19510;54.486;9.046;2023-10-09T09:32:28;11.60;99.90
16838;DHT22;19510;54.486;9.046;2023-10-09T09:35:04;11.60;99.90
16838;DHT22;19510;54.486;9.046;2023-10-09T09:37:34;11.60;99.90
16838;DHT22;19510;54.486;9.046;2023-10-09T09:40:09;11.60;99.90
16838;DHT22;19510;54.486;9.046;2023-10-09T09:42:58;11.60;99.90
16838;DHT22;19510;54.486;9.046;2023-10-09T09:45:42;11.60;99.90
16838;DHT22;19510;54.486;9.046;2023-10-09T09:48:32;11.60;99.90
16838;DHT22;19510;54.486;9.046;2023-10-09T09:50:58;11.60;99.90
16838;DHT22;19510;54.486;9.046;2023-10-09T09:53:23;11.60;99.90
16838;DHT22;19510;54.486;9.046;2023-10-09T09:55:51;11.60;99.90
16838;DHT22;19510;54.486;9.046;2023-10-09T09:58:30;11.70;99.90
16838;DHT22;19510;54.486;9.046;2023-10-09T10:01:09;11.70;99.90
16838;DHT22;19510;54.486;9.046;2023-10-09T10:03:58;11.80;99.90
16838;DHT22;19510;54.486;9.046;2023-10-09T10:06:25;11.80;99.90
16838;DHT22;19510;54.486;9.046;2023-10-09T10:08:54;11.80;99.90
16838;DHT22;19510;54.486;9.046;2023-10-09T10:11:42;11.90;99.90
16838;DHT22;19510;54.486;9.046;2023-10-09T10:14:12;11.90;99.90
16838;DHT22;19510;54.486;9.046;2023-10-09T10:17:07;11.90;99.90
16838;DHT22;19510;54.486;9.046;2023-10-09T10:23:17;12.00;99.90
16838;DHT22;19510;54.486;9.046;2023-10-09T10:25:44;12.10;99.90
16838;DHT22;19510;54.486;9.046;2023-10-09T10:31:01;12.10;99.90
16838;DHT22;19510;54.486;9.046;2023-10-09T10:36:19;12.10;99.90
16838;DHT22;19510;54.486;9.046;2023-10-09T10:39:02;12.10;99.90
16838;DHT22;19510;54.486;9.046;2023-10-09T10:41:57;12.10;99.90
16838;DHT22;19510;54.486;9.046;2023-10-09T10:44:29;12.10;99.90
16838;DHT22;19510;54.486;9.046;2023-10-09T10:47:11;12.10;99.90
16838;DHT22;19510;54.486;9.046;2023-10-09T10:49:53;12.20;99.90
16838;DHT22;19510;54.486;9.046;2023-10-09T10:52:36;12.10;99.90
16838;DHT22;19510;54.486;9.046;2023-10-09T10:55:16;12.10;99.90
16838;DHT22;19510;54.486;9.046;2023-10-09T10:57:57;12.10;99.90
16838;DHT22;19510;54.486;9.046;2023-10-09T11:00:39;12.10;99.90
16838;DHT22;19510;54.486;9.046;2023-10-09T11:03:24;12.10;99.90
16838;DHT22;19510;54.486;9.046;2023-10-09T11:06:04;12.10;99.90
16838;DHT22;19510;54.486;9.046;2023-10-09T11:08:44;12.20;99.90
16838;DHT22;19510;54.486;9.046;2023-10-09T11:11:20;12.20;99.90
16838;DHT22;19510;54.486;9.046;2023-10-09T11:13:46;12.10;99.90
16838;DHT22;19510;54.486;9.046;2023-10-09T11:16:19;12.20;99.90
16838;DHT22;19510;54.486;9.046;2023-10-09T11:19:00;12.20;99.90
16838;DHT22;19510;54.486;9.046;2023-10-09T11:21:38;12.20;99.90
16838;DHT22;19510;54.486;9.046;2023-10-09T11:24:08;12.20;99.90
16838;DHT22;19510;54.486;9.046;2023-10-09T11:26:52;12.20;99.90
16838;DHT22;19510;54.486;9.046;2023-10-09T11:29:22;12.30;99.90
16838;DHT22;19510;54.486;9.046;2023-10-09T11:32:07;12.30;99.90
16838;DHT22;19510;54.486;9.046;2023-10-09T11:34:43;12.30;99.90
16838;DHT22;19510;54.486;9.046;2023-10-09T11:37:21;12.30;99.90
16838;DHT22;19510;54.486;9.046;2023-10-09T11:39:59;12.40;99.90
16838;DHT22;19510;54.486;9.046;2023-10-09T11:42:29;12.40;99.90
16838;DHT22;19510;54.486;9.046;2023-10-09T11:45:24;12.40;99.90
16838;DHT22;19510;54.486;9.046;2023-10-09T11:47:58;12.50;99.90
16838;DHT22;19510;54.486;9.046;2023-10-09T11:50:47;12.40;99.90
16838;DHT22;19510;54.486;9.046;2023-10-09T11:53:17;12.40;99.90
16838;DHT22;19510;54.486;9.046;2023-10-09T11:55:48;12.40;99.90
16838;DHT22;19510;54.486;9.046;2023-10-09T11:58:17;12.40;99.90
16838;DHT22;19510;54.486;9.046;2023-10-09T12:00:57;12.40;99.90
16838;DHT22;19510;54.486;9.046;2023-10-09T12:03:29;12.40;99.90
16838;DHT22;19510;54.486;9.046;2023-10-09T12:06:00;12.40;99.90
16838;DHT22;19510;54.486;9.046;2023-10-09T12:08:38;12.40;99.90
16838;DHT22;19510;54.486;9.046;2023-10-09T12:11:06;12.40;99.90
16838;DHT22;19510;54.486;9.046;2023-10-09T12:13:36;12.50;99.90
16838;DHT22;19510;54.486;9.046;2023-10-09T12:16:07;12.50;99.90
16838;DHT22;19510;54.486;9.046;2023-10-09T12:18:35;12.50;99.90
16838;DHT22;19510;54.486;9.046;2023-10-09T12:21:01;12.60;99.90
16838;DHT22;19510;54.486;9.046;2023-10-09T12:23:30;12.70;99.90
16838;DHT22;19510;54.486;9.046;2023-10-09T12:29:23;12.70;99.90
16838;DHT22;19510;54.486;9.046;2023-10-09T12:31:55;12.80;99.90
16838;DHT22;19510;54.486;9.046;2023-10-09T12:34:25;12.80;99.90
16838;DHT22;19510;54.486;9.046;2023-10-09T12:36:54;12.90;99.90
16838;DHT22;19510;54.486;9.046;2023-10-09T12:39:22;12.80;99.90
16838;DHT22;19510;54.486;9.046;2023-10-09T12:41:49;12.90;99.90
16838;DHT22;19510;54.486;9.046;2023-10-09T12:44:19;12.90;99.90
16838;DHT22;19510;54.486;9.046;2023-10-09T12:50:26;13.00;99.90
16838;DHT22;19510;54.486;9.046;2023-10-09T12:53:02;13.00;99.90
16838;DHT22;19510;54.486;9.046;2023-10-09T12:55:39;13.10;99.90
16838;DHT22;19510;54.486;9.046;2023-10-09T12:58:08;13.00;99.90
16838;DHT22;19510;54.486;9.046;2023-10-09T13:00:38;13.10;99.90
16838;DHT22;19510;54.486;9.046;2023-10-09T13:03:10;13.10;99.90
16838;DHT22;19510;54.486;9.046;2023-10-09T13:05:52;13.10;99.90
16838;DHT22;19510;54.486;9.046;2023-10-09T13:08:26;13.00;99.90
16838;DHT22;19510;54.486;9.046;2023-10-09T13:11:06;13.00;99.90
16838;DHT22;19510;54.486;9.046;2023-10-09T13:13:43;13.00;99.90
16838;DHT22;19510;54.486;9.046;2023-10-09T13:16:13;13.00;99.90
16838;DHT22;19510;54.486;9.046;2023-10-09T13:18:46;13.00;99.90
16838;DHT22;19510;54.486;9.046;2023-10-09T13:21:25;13.10;99.90
16838;DHT22;19510;54.486;9.046;2023-10-09T13:23:57;13.10;99.90
16838;DHT22;19510;54.486;9.046;2023-10-09T13:26:23;13.10;99.90
16838;DHT22;19510;54.486;9.046;2023-10-09T13:28:53;13.10;99.90
16838;DHT22;19510;54.486;9.046;2023-10-09T13:31:20;13.10;99.90
16838;DHT22;19510;54.486;9.046;2023-10-09T13:33:47;13.10;99.90
16838;DHT22;19510;54.486;9.046;2023-10-09T13:36:14;13.10;99.90
16838;DHT22;19510;54.486;9.046;2023-10-09T13:39:06;13.10;99.90
16838;DHT22;19510;54.486;9.046;2023-10-09T13:41:55;13.10;99.90
16838;DHT22;19510;54.486;9.046;2023-10-09T13:47:42;13.10;99.90
16838;DHT22;19510;54.486;9.046;2023-10-09T13:50:11;13.20;99.90
16838;DHT22;19510;54.486;9.046;2023-10-09T13:52:38;13.20;99.90
16838;DHT22;19510;54.486;9.046;2023-10-09T13:55:06;13.20;99.90
16838;DHT22;19510;54.486;9.046;2023-10-09T13:57:42;13.20;99.90
16838;DHT22;19510;54.486;9.046;2023-10-09T14:00:12;13.30;99.90
16838;DHT22;19510;54.486;9.046;2023-10-09T14:02:43;13.40;99.90
16838;DHT22;19510;54.486;9.046;2023-10-09T14:05:08;13.30;99.90
16838;DHT22;19510;54.486;9.046;2023-10-09T14:07:34;13.30;99.90
16838;DHT22;19510;54.486;9.046;2023-10-09T14:10:00;13.40;99.90
16838;DHT22;19510;54.486;9.046;2023-10-09T14:12:43;13.30;99.90
16838;DHT22;19510;54.486;9.046;2023-10-09T14:15:09;13.40;99.90
16838;DHT22;19510;54.486;9.046;2023-10-09T14:17:43;13.30;99.90
16838;DHT22;19510;54.486;9.046;2023-10-09T14:20:09;13.30;99.90
16838;DHT22;19510;54.486;9.046;2023-10-09T14:22:53;13.30;99.90
16838;DHT22;19510;54.486;9.046;2023-10-09T14:25:19;13.30;99.90
16838;DHT22;19510;54.486;9.046;2023-10-09T14:27:47;13.30;99.90
16838;DHT22;19510;54.486;9.046;2023-10-09T14:30:18;13.30;99.90
16838;DHT22;19510;54.486;9.046;2023-10-09T14:32:58;13.30;99.90
16838;DHT22;19510;54.486;9.046;2023-10-09T14:35:26;13.40;99.90
16838;DHT22;19510;54.486;9.046;2023-10-09T14:37:55;13.40;99.90
16838;DHT22;19510;54.486;9.046;2023-10-09T14:40:22;13.40;99.90
16838;DHT22;19510;54.486;9.046;2023-10-09T14:42:55;13.40;99.90
16838;DHT22;19510;54.486;9.046;2023-10-09T14:45:24;13.40;99.90
16838;DHT22;19510;54.486;9.046;2023-10-09T14:47:52;13.40;99.90
16838;DHT22;19510;54.486;9.046;2023-10-09T14:50:20;13.50;99.90
16838;DHT22;19510;54.486;9.046;2023-10-09T14:52:48;13.50;99.90
16838;DHT22;19510;54.486;9.046;2023-10-09T14:55:16;13.50;99.90
16838;DHT22;19510;54.486;9.046;2023-10-09T14:57:47;13.50;99.90
16838;DHT22;19510;54.486;9.046;2023-10-09T15:00:15;13.50;99.90
16838;DHT22;19510;54.486;9.046;2023-10-09T15:02:51;13.50;99.90
16838;DHT22;19510;54.486;9.046;2023-10-09T15:05:17;13.50;99.90
16838;DHT22;19510;54.486;9.046;2023-10-09T15:07:43;13.50;99.90
16838;DHT22;19510;54.486;9.046;2023-10-09T15:10:09;13.50;99.90
16838;DHT22;19510;54.486;9.046;2023-10-09T15:12:35;13.50;99.90
16838;DHT22;19510;54.486;9.046;2023-10-09T15:15:08;13.40;99.90
16838;DHT22;19510;54.486;9.046;2023-10-09T15:17:43;13.40;99.90
16838;DHT22;19510;54.486;9.046;2023-10-09T15:20:14;13.50;99.90
16838;DHT22;19510;54.486;9.046;2023-10-09T15:22:44;13.40;99.90
16838;DHT22;19510;54.486;9.046;2023-10-09T15:25:10;13.40;99.90
16838;DHT22;19510;54.486;9.046;2023-10-09T15:27:43;13.40;99.90
16838;DHT22;19510;54.486;9.046;2023-10-09T15:30:09;13.40;99.90
16838;DHT22;19510;54.486;9.046;2023-10-09T15:32:40;13.40;99.90
16838;DHT22;19510;54.486;9.046;2023-10-09T15:35:07;13.40;99.90
16838;DHT22;19510;54.486;9.046;2023-10-09T15:40:33;13.40;99.90
16838;DHT22;19510;54.486;9.046;2023-10-09T15:43:03;13.40;99.90
16838;DHT22;19510;54.486;9.046;2023-10-09T15:45:30;13.40;99.90
16838;DHT22;19510;54.486;9.046;2023-10-09T15:47:57;13.40;99.90
16838;DHT22;19510;54.486;9.046;2023-10-09T15:50:45;13.40;99.90
16838;DHT22;19510;54.486;9.046;2023-10-09T15:53:21;13.30;99.90
16838;DHT22;19510;54.486;9.046;2023-10-09T15:56:13;13.30;99.90
16838;DHT22;19510;54.486;9.046;2023-10-09T15:58:44;13.40;99.90
16838;DHT22;19510;54.486;9.046;2023-10-09T16:01:13;13.30;99.90
16838;DHT22;19510;54.486;9.046;2023-10-09T16:03:43;13.40;99.90
16838;DHT22;19510;54.486;9.046;2023-10-09T16:06:22;13.40;99.90
16838;DHT22;19510;54.486;9.046;2023-10-09T16:09:08;13.30;99.90
16838;DHT22;19510;54.486;9.046;2023-10-09T16:11:40;13.40;99.90
16838;DHT22;19510;54.486;9.046;2023-10-09T16:14:06;13.30;99.90
16838;DHT22;19510;54.486;9.046;2023-10-09T16:16:35;13.30;99.90
16838;DHT22;19510;54.486;9.046;2023-10-09T16:19:08;13.30;99.90
16838;DHT22;19510;54.486;9.046;2023-10-09T16:21:35;13.30;99.90
16838;DHT22;19510;54.486;9.046;2023-10-09T16:24:01;13.30;99.90
16838;DHT22;19510;54.486;9.046;2023-10-09T16:26:27;13.30;99.90
16838;DHT22;19510;54.486;9.046;2023-10-09T16:28:54;13.30;99.90
16838;DHT22;19510;54.486;9.046;2023-10-09T16:31:20;13.30;99.90
16838;DHT22;19510;54.486;9.046;2023-10-09T16:33:46;13.20;99.90
16838;DHT22;19510;54.486;9.046;2023-10-09T16:36:16;13.20;99.90
16838;DHT22;19510;54.486;9.046;2023-10-09T16:38:42;13.30;99.90
16838;DHT22;19510;54.486;9.046;2023-10-09T16:41:09;13.30;99.90
16838;DHT22;19510;54.486;9.046;2023-10-09T16:43:37;13.30;99.90
16838;DHT22;19510;54.486;9.046;2023-10-09T16:46:06;13.30;99.90
16838;DHT22;19510;54.486;9.046;2023-10-09T16:48:36;13.20;99.90
16838;DHT22;19510;54.486;9.046;2023-10-09T16:51:06;13.20;99.90
16838;DHT22;19510;54.486;9.046;2023-10-09T16:53:37;13.30;99.90
16838;DHT22;19510;54.486;9.046;2023-10-09T16:56:04;13.30;99.90
16838;DHT22;19510;54.486;9.046;2023-10-09T16:58:39;13.30;99.90
16838;DHT22;19510;54.486;9.046;2023-10-09T17:01:07;13.30;99.90
16838;DHT22;19510;54.486;9.046;2023-10-09T17:03:39;13.30;99.90
16838;DHT22;19510;54.486;9.046;2023-10-09T17:06:09;13.20;99.90
16838;DHT22;19510;54.486;9.046;2023-10-09T17:08:39;13.20;99.90
16838;DHT22;19510;54.486;9.046;2023-10-09T17:11:09;13.20;99.90
16838;DHT22;19510;54.486;9.046;2023-10-09T17:13:45;13.30;99.90
16838;DHT22;19510;54.486;9.046;2023-10-09T17:16:18;13.30;99.90
16838;DHT22;19510;54.486;9.046;2023-10-09T17:18:48;13.30;99.90
16838;DHT22;19510;54.486;9.046;2023-10-09T17:21:14;13.30;99.90
16838;DHT22;19510;54.486;9.046;2023-10-09T17:23:43;13.20;99.90
16838;DHT22;19510;54.486;9.046;2023-10-09T17:26:12;13.30;99.90
16838;DHT22;19510;54.486;9.046;2023-10-09T17:28:40;13.20;99.90
16838;DHT22;19510;54.486;9.046;2023-10-09T17:31:06;13.30;99.90
16838;DHT22;19510;54.486;9.046;2023-10-09T17:33:32;13.30;99.90
16838;DHT22;19510;54.486;9.046;2023-10-09T17:36:06;13.30;99.90
16838;DHT22;19510;54.486;9.046;2023-10-09T17:38:32;13.30;99.90
16838;DHT22;19510;54.486;9.046;2023-10-09T17:41:00;13.30;99.90
16838;DHT22;19510;54.486;9.046;2023-10-09T17:43:27;13.30;99.90
16838;DHT22;19510;54.486;9.046;2023-10-09T17:45:55;13.20;99.90
16838;DHT22;19510;54.486;9.046;2023-10-09T17:48:21;13.20;99.90
16838;DHT22;19510;54.486;9.046;2023-10-09T17:50:48;13.30;99.90
16838;DHT22;19510;54.486;9.046;2023-10-09T17:53:14;13.20;99.90
16838;DHT22;19510;54.486;9.046;2023-10-09T17:55:40;13.20;99.90
16838;DHT22;19510;54.486;9.046;2023-10-09T17:58:11;13.20;99.90
16838;DHT22;19510;54.486;9.046;2023-10-09T18:00:41;13.20;99.90
16838;DHT22;19510;54.486;9.046;2023-10-09T18:03:08;13.20;99.90
16838;DHT22;19510;54.486;9.046;2023-10-09T18:05:34;13.20;99.90
16838;DHT22;19510;54.486;9.046;2023-10-09T18:08:01;13.30;99.90
16838;DHT22;19510;54.486;9.046;2023-10-09T18:10:33;13.30;99.90
16838;DHT22;19510;54.486;9.046;2023-10-09T18:13:02;13.20;99.90
16838;DHT22;19510;54.486;9.046;2023-10-09T18:15:28;13.20;99.90
16838;DHT22;19510;54.486;9.046;2023-10-09T18:17:58;13.20;99.90
16838;DHT22;19510;54.486;9.046;2023-10-09T18:20:25;13.10;99.90
16838;DHT22;19510;54.486;9.046;2023-10-09T18:22:51;13.20;99.90
16838;DHT22;19510;54.486;9.046;2023-10-09T18:25:18;13.10;99.90
16838;DHT22;19510;54.486;9.046;2023-10-09T18:27:44;13.20;99.90
16838;DHT22;19510;54.486;9.046;2023-10-09T18:30:11;13.20;99.90
16838;DHT22;19510;54.486;9.046;2023-10-09T18:32:39;13.20;99.90
16838;DHT22;19510;54.486;9.046;2023-10-09T18:35:05;13.20;99.90
16838;DHT22;19510;54.486;9.046;2023-10-09T18:37:32;13.20;99.90
16838;DHT22;19510;54.486;9.046;2023-10-09T18:39:58;13.20;99.90
16838;DHT22;19510;54.486;9.046;2023-10-09T18:42:24;13.20;99.90
16838;DHT22;19510;54.486;9.046;2023-10-09T18:44:50;13.20;99.90
16838;DHT22;19510;54.486;9.046;2023-10-09T18:47:15;13.20;99.90
16838;DHT22;19510;54.486;9.046;2023-10-09T18:49:45;13.20;99.90
16838;DHT22;19510;54.486;9.046;2023-10-09T18:52:10;13.20;99.90
16838;DHT22;19510;54.486;9.046;2023-10-09T18:54:36;13.20;99.90
16838;DHT22;19510;54.486;9.046;2023-10-09T18:57:05;13.20;99.90
16838;DHT22;19510;54.486;9.046;2023-10-09T18:59:31;13.20;99.90
16838;DHT22;19510;54.486;9.046;2023-10-09T19:01:57;13.10;99.90
16838;DHT22;19510;54.486;9.046;2023-10-09T19:04:23;13.20;99.90
16838;DHT22;19510;54.486;9.046;2023-10-09T19:06:49;13.20;99.90
16838;DHT22;19510;54.486;9.046;2023-10-09T19:09:16;13.30;99.90
16838;DHT22;19510;54.486;9.046;2023-10-09T19:11:49;13.30;99.90
16838;DHT22;19510;54.486;9.046;2023-10-09T19:14:16;13.20;99.90
16838;DHT22;19510;54.486;9.046;2023-10-09T19:16:43;13.20;99.90
16838;DHT22;19510;54.486;9.046;2023-10-09T19:19:12;13.30;99.90
16838;DHT22;19510;54.486;9.046;2023-10-09T19:21:38;13.30;99.90
16838;DHT22;19510;54.486;9.046;2023-10-09T19:24:03;13.30;99.90
16838;DHT22;19510;54.486;9.046;2023-10-09T19:26:38;13.30;99.90
16838;DHT22;19510;54.486;9.046;2023-10-09T19:29:04;13.30;99.90
16838;DHT22;19510;54.486;9.046;2023-10-09T19:31:32;13.30;99.90
16838;DHT22;19510;54.486;9.046;2023-10-09T19:33:58;13.30;99.90
16838;DHT22;19510;54.486;9.046;2023-10-09T19:36:24;13.20;99.90
16838;DHT22;19510;54.486;9.046;2023-10-09T19:38:54;13.30;99.90
16838;DHT22;19510;54.486;9.046;2023-10-09T19:41:22;13.30;99.90